sensor_id;sensor_type;location;lat;lon;timestamp;pressure;altitude;pressure_sealevel;temperature;humidity
48964;BME280;34776;48.180;16.420;2023-04-06T00:01:08;100214.16;;;2.93;44.40
48964;BME280;34776;48.180;16.420;2023-04-06T00:03:34;100214.16;;;2.93;44.43
48964;BME280;34776;48.180;16.420;2023-04-06T00:05:59;100212.41;;;2.93;44.20
48964;BME280;34776;48.180;16.420;2023-04-06T00:08:25;100214.16;;;2.94;44.24
48964;BME280;34776;48.180;16.420;2023-04-06T00:10:51;100211.53;;;2.94;44.44
48964;BME280;34776;48.180;16.420;2023-04-06T00:13:16;100210.69;;;2.92;44.26
48964;BME280;34776;48.180;16.420;2023-04-06T00:15:42;100214.19;;;2.91;44.25
48964;BME280;34776;48.180;16.420;2023-04-06T00:18:07;100208.09;;;2.88;44.35
48964;BME280;34776;48.180;16.420;2023-04-06T00:20:32;100209.00;;;2.85;44.30
48964;BME280;34776;48.180;16.420;2023-04-06T00:22:58;100203.81;;;2.82;44.57
48964;BME280;34776;48.180;16.420;2023-04-06T00:25:23;100203.84;;;2.79;44.46
48964;BME280;34776;48.180;16.420;2023-04-06T00:27:49;100205.63;;;2.77;44.65
48964;BME280;34776;48.180;16.420;2023-04-06T00:30:14;100208.31;;;2.72;44.73
48964;BME280;34776;48.180;16.420;2023-04-06T00:32:40;100203.97;;;2.70;44.94
48964;BME280;34776;48.180;16.420;2023-04-06T00:35:05;100204.84;;;2.69;44.68
48964;BME280;34776;48.180;16.420;2023-04-06T00:37:31;100200.50;;;2.68;44.58
48964;BME280;34776;48.180;16.420;2023-04-06T00:39:57;100199.66;;;2.64;44.90
48964;BME280;34776;48.180;16.420;2023-04-06T00:42:23;100198.84;;;2.60;44.90
48964;BME280;34776;48.180;16.420;2023-04-06T00:44:56;100200.66;;;2.55;44.95
48964;BME280;34776;48.180;16.420;2023-04-06T00:47:22;100195.41;;;2.55;44.95
48964;BME280;34776;48.180;16.420;2023-04-06T00:49:48;100199.81;;;2.53;44.75
48964;BME280;34776;48.180;16.420;2023-04-06T00:52:14;100189.38;;;2.49;44.87
48964;BME280;34776;48.180;16.420;2023-04-06T00:54:39;100192.00;;;2.47;44.92
48964;BME280;34776;48.180;16.420;2023-04-06T00:57:05;100191.13;;;2.48;44.99
48964;BME280;34776;48.180;16.420;2023-04-06T00:59:31;100192.00;;;2.47;45.06
48964;BME280;34776;48.180;16.420;2023-04-06T01:01:56;100199.00;;;2.48;45.15
48964;BME280;34776;48.180;16.420;2023-04-06T01:04:21;100193.75;;;2.48;44.94
48964;BME280;34776;48.180;16.420;2023-04-06T01:06:50;100195.53;;;2.46;45.10
48964;BME280;34776;48.180;16.420;2023-04-06T01:09:16;100188.53;;;2.45;45.19
48964;BME280;34776;48.180;16.420;2023-04-06T01:11:42;100197.31;;;2.44;45.07
48964;BME280;34776;48.180;16.420;2023-04-06T01:14:07;100190.31;;;2.43;45.16
48964;BME280;34776;48.180;16.420;2023-04-06T01:16:33;100191.16;;;2.43;45.03
48964;BME280;34776;48.180;16.420;2023-04-06T01:18:59;100191.22;;;2.42;45.10
48964;BME280;34776;48.180;16.420;2023-04-06T01:21:25;100190.34;;;2.40;45.16
48964;BME280;34776;48.180;16.420;2023-04-06T01:23:50;100187.75;;;2.38;45.19
48964;BME280;34776;48.180;16.420;2023-04-06T01:26:16;100186.91;;;2.35;45.44
48964;BME280;34776;48.180;16.420;2023-04-06T01:28:41;100185.19;;;2.34;45.35
48964;BME280;34776;48.180;16.420;2023-04-06T01:31:08;100178.25;;;2.30;45.52
48964;BME280;34776;48.180;16.420;2023-04-06T01:33:33;100181.72;;;2.29;45.47
48964;BME280;34776;48.180;16.420;2023-04-06T01:35:59;100175.69;;;2.25;45.60
48964;BME280;34776;48.180;16.420;2023-04-06T01:38:25;100178.31;;;2.23;45.69
48964;BME280;34776;48.180;16.420;2023-04-06T01:40:51;100169.53;;;2.24;45.58
48964;BME280;34776;48.180;16.420;2023-04-06T01:43:17;100170.44;;;2.22;45.70
48964;BME280;34776;48.180;16.420;2023-04-06T01:45:42;100171.34;;;2.21;45.73
48964;BME280;34776;48.180;16.420;2023-04-06T01:48:08;100173.13;;;2.17;45.92
48964;BME280;34776;48.180;16.420;2023-04-06T01:50:33;100171.34;;;2.19;45.73
48964;BME280;34776;48.180;16.420;2023-04-06T01:52:58;100169.63;;;2.18;45.70
48964;BME280;34776;48.180;16.420;2023-04-06T01:55:24;100174.88;;;2.18;45.43
48964;BME280;34776;48.180;16.420;2023-04-06T01:57:49;100171.41;;;2.15;45.89
48964;BME280;34776;48.180;16.420;2023-04-06T02:00:15;100173.19;;;2.14;45.87
48964;BME280;34776;48.180;16.420;2023-04-06T02:02:41;100175.81;;;2.14;45.80
48964;BME280;34776;48.180;16.420;2023-04-06T02:05:07;100170.56;;;2.13;45.84
48964;BME280;34776;48.180;16.420;2023-04-06T02:07:32;100171.47;;;2.10;45.94
48964;BME280;34776;48.180;16.420;2023-04-06T02:09:58;100171.47;;;2.10;45.93
48964;BME280;34776;48.180;16.420;2023-04-06T02:12:23;100171.50;;;2.07;45.90
48964;BME280;34776;48.180;16.420;2023-04-06T02:14:49;100169.78;;;2.03;45.94
48964;BME280;34776;48.180;16.420;2023-04-06T02:17:14;100163.69;;;2.02;46.03
48964;BME280;34776;48.180;16.420;2023-04-06T02:19:40;100171.53;;;2.04;45.80
48964;BME280;34776;48.180;16.420;2023-04-06T02:22:05;100173.31;;;2.02;45.73
48964;BME280;34776;48.180;16.420;2023-04-06T02:24:31;100164.59;;;2.00;45.76
48964;BME280;34776;48.180;16.420;2023-04-06T02:26:56;100166.38;;;1.98;45.90
48964;BME280;34776;48.180;16.420;2023-04-06T02:29:22;100165.50;;;1.96;45.80
48964;BME280;34776;48.180;16.420;2023-04-06T02:31:47;100164.66;;;1.94;45.64
48964;BME280;34776;48.180;16.420;2023-04-06T02:34:12;100166.41;;;1.92;45.79
48964;BME280;34776;48.180;16.420;2023-04-06T02:36:45;100162.06;;;1.91;46.04
48964;BME280;34776;48.180;16.420;2023-04-06T02:39:11;100163.81;;;1.89;45.89
48964;BME280;34776;48.180;16.420;2023-04-06T02:41:37;100158.56;;;1.89;45.98
48964;BME280;34776;48.180;16.420;2023-04-06T02:44:03;100157.72;;;1.88;46.04
48964;BME280;34776;48.180;16.420;2023-04-06T02:46:29;100159.50;;;1.85;46.19
48964;BME280;34776;48.180;16.420;2023-04-06T02:48:54;100154.25;;;1.86;46.05
48964;BME280;34776;48.180;16.420;2023-04-06T02:51:20;100165.63;;;1.85;46.02
48964;BME280;34776;48.180;16.420;2023-04-06T02:53:46;100164.72;;;1.85;46.03
48964;BME280;34776;48.180;16.420;2023-04-06T02:56:11;100164.72;;;1.85;45.82
48964;BME280;34776;48.180;16.420;2023-04-06T02:58:36;100163.00;;;1.83;46.16
48964;BME280;34776;48.180;16.420;2023-04-06T03:01:03;100167.34;;;1.85;46.18
48964;BME280;34776;48.180;16.420;2023-04-06T03:03:28;100166.50;;;1.82;46.25
48964;BME280;34776;48.180;16.420;2023-04-06T03:05:53;100164.78;;;1.78;46.29
48964;BME280;34776;48.180;16.420;2023-04-06T03:08:21;100156.97;;;1.77;46.32
48964;BME280;34776;48.180;16.420;2023-04-06T03:10:48;100149.13;;;1.75;46.32
48964;BME280;34776;48.180;16.420;2023-04-06T03:13:14;100153.47;;;1.76;46.57
48964;BME280;34776;48.180;16.420;2023-04-06T03:15:39;100157.84;;;1.77;46.33
48964;BME280;34776;48.180;16.420;2023-04-06T03:18:05;100154.31;;;1.78;46.41
48964;BME280;34776;48.180;16.420;2023-04-06T03:20:30;100153.47;;;1.76;46.68
48964;BME280;34776;48.180;16.420;2023-04-06T03:22:55;100163.13;;;1.74;46.60
48964;BME280;34776;48.180;16.420;2023-04-06T03:25:21;100163.94;;;1.76;46.29
48964;BME280;34776;48.180;16.420;2023-04-06T03:27:46;100167.44;;;1.75;46.39
48964;BME280;34776;48.180;16.420;2023-04-06T03:30:12;100170.97;;;1.73;46.38
48964;BME280;34776;48.180;16.420;2023-04-06T03:32:37;100175.34;;;1.72;46.61
48964;BME280;34776;48.180;16.420;2023-04-06T03:35:03;100171.00;;;1.70;46.67
48964;BME280;34776;48.180;16.420;2023-04-06T03:37:28;100172.75;;;1.71;46.44
48964;BME280;34776;48.180;16.420;2023-04-06T03:39:54;100170.13;;;1.72;46.67
48964;BME280;34776;48.180;16.420;2023-04-06T03:42:19;100170.13;;;1.72;46.66
48964;BME280;34776;48.180;16.420;2023-04-06T03:44:44;100177.13;;;1.70;46.91
48964;BME280;34776;48.180;16.420;2023-04-06T03:47:10;100175.38;;;1.71;46.82
48964;BME280;34776;48.180;16.420;2023-04-06T03:49:35;100170.97;;;1.74;46.79
48964;BME280;34776;48.180;16.420;2023-04-06T03:52:01;100176.16;;;1.77;46.70
48964;BME280;34776;48.180;16.420;2023-04-06T03:54:26;100179.66;;;1.78;46.50
48964;BME280;34776;48.180;16.420;2023-04-06T03:56:51;100175.28;;;1.78;46.75
48964;BME280;34776;48.180;16.420;2023-04-06T03:59:17;100189.22;;;1.80;46.66
48964;BME280;34776;48.180;16.420;2023-04-06T04:01:42;100184.88;;;1.78;46.82
48964;BME280;34776;48.180;16.420;2023-04-06T04:04:08;100184.03;;;1.77;46.60
48964;BME280;34776;48.180;16.420;2023-04-06T04:06:33;100184.03;;;1.77;46.79
48964;BME280;34776;48.180;16.420;2023-04-06T04:08:59;100178.78;;;1.77;46.86
48964;BME280;34776;48.180;16.420;2023-04-06T04:11:24;100185.75;;;1.78;46.82
48964;BME280;34776;48.180;16.420;2023-04-06T04:13:49;100172.66;;;1.78;46.81
48964;BME280;34776;48.180;16.420;2023-04-06T04:16:15;100178.75;;;1.80;46.56
48964;BME280;34776;48.180;16.420;2023-04-06T04:18:40;100174.41;;;1.79;46.66
48964;BME280;34776;48.180;16.420;2023-04-06T04:21:08;100177.03;;;1.79;46.69
48964;BME280;34776;48.180;16.420;2023-04-06T04:23:34;100181.41;;;1.79;46.67
48964;BME280;34776;48.180;16.420;2023-04-06T04:25:59;100190.13;;;1.79;46.81
48964;BME280;34776;48.180;16.420;2023-04-06T04:28:24;100182.25;;;1.79;46.98
48964;BME280;34776;48.180;16.420;2023-04-06T04:30:50;100189.22;;;1.80;46.67
48964;BME280;34776;48.180;16.420;2023-04-06T04:33:15;100185.75;;;1.81;46.80
48964;BME280;34776;48.180;16.420;2023-04-06T04:35:41;100189.22;;;1.80;46.59
48964;BME280;34776;48.180;16.420;2023-04-06T04:38:06;100197.94;;;1.86;46.96
48964;BME280;34776;48.180;16.420;2023-04-06T04:40:31;100192.69;;;1.86;46.88
48964;BME280;34776;48.180;16.420;2023-04-06T04:42:57;100195.31;;;1.86;46.83
48964;BME280;34776;48.180;16.420;2023-04-06T04:45:22;100193.53;;;1.86;46.86
48964;BME280;34776;48.180;16.420;2023-04-06T04:47:47;100186.53;;;1.88;46.96
48964;BME280;34776;48.180;16.420;2023-04-06T04:50:13;100193.53;;;1.89;46.96
48964;BME280;34776;48.180;16.420;2023-04-06T04:52:38;100182.16;;;1.92;46.91
48964;BME280;34776;48.180;16.420;2023-04-06T04:55:04;100178.63;;;1.93;46.98
48964;BME280;34776;48.180;16.420;2023-04-06T04:57:29;100190.84;;;1.94;47.11
48964;BME280;34776;48.180;16.420;2023-04-06T04:59:55;100189.09;;;1.96;46.95
48964;BME280;34776;48.180;16.420;2023-04-06T05:02:20;100187.28;;;2.01;47.06
48964;BME280;34776;48.180;16.420;2023-04-06T05:04:45;100194.22;;;2.05;47.35
48964;BME280;34776;48.180;16.420;2023-04-06T05:07:11;100184.59;;;2.07;47.08
48964;BME280;34776;48.180;16.420;2023-04-06T05:09:36;100190.69;;;2.09;47.26
48964;BME280;34776;48.180;16.420;2023-04-06T05:12:02;100194.16;;;2.14;47.42
48964;BME280;34776;48.180;16.420;2023-04-06T05:14:28;100191.47;;;2.19;47.57
48964;BME280;34776;48.180;16.420;2023-04-06T05:16:53;100187.03;;;2.26;47.24
48964;BME280;34776;48.180;16.420;2023-04-06T05:19:19;100190.44;;;2.34;47.35
48964;BME280;34776;48.180;16.420;2023-04-06T05:21:44;100186.84;;;2.41;47.37
48964;BME280;34776;48.180;16.420;2023-04-06T05:24:10;100185.03;;;2.46;47.34
48964;BME280;34776;48.180;16.420;2023-04-06T05:26:35;100189.31;;;2.52;47.26
48964;BME280;34776;48.180;16.420;2023-04-06T05:29:01;100186.66;;;2.56;47.27
48964;BME280;34776;48.180;16.420;2023-04-06T05:31:26;100190.03;;;2.66;47.17
48964;BME280;34776;48.180;16.420;2023-04-06T05:33:52;100182.06;;;2.74;47.10
48964;BME280;34776;48.180;16.420;2023-04-06T05:36:17;100183.69;;;2.82;46.93
48964;BME280;34776;48.180;16.420;2023-04-06T05:38:43;100186.22;;;2.90;46.68
48964;BME280;34776;48.180;16.420;2023-04-06T05:41:08;100186.16;;;2.93;46.66
48964;BME280;34776;48.180;16.420;2023-04-06T05:43:33;100179.03;;;3.03;46.78
48964;BME280;34776;48.180;16.420;2023-04-06T05:45:59;100178.94;;;3.08;46.42
48964;BME280;34776;48.180;16.420;2023-04-06T05:48:25;100184.13;;;3.14;46.49
48964;BME280;34776;48.180;16.420;2023-04-06T05:50:51;100186.63;;;3.21;46.68
48964;BME280;34776;48.180;16.420;2023-04-06T05:53:16;100184.84;;;3.23;46.50
48964;BME280;34776;48.180;16.420;2023-04-06T05:55:42;100187.41;;;3.28;46.58
48964;BME280;34776;48.180;16.420;2023-04-06T05:58:07;100189.09;;;3.32;46.40
48964;BME280;34776;48.180;16.420;2023-04-06T06:00:32;100185.53;;;3.36;46.32
48964;BME280;34776;48.180;16.420;2023-04-06T06:02:58;100186.38;;;3.38;46.19
48964;BME280;34776;48.180;16.420;2023-04-06T06:05:24;100191.38;;;3.52;46.10
48964;BME280;34776;48.180;16.420;2023-04-06T06:07:49;100186.78;;;3.65;46.06
48964;BME280;34776;48.180;16.420;2023-04-06T06:10:15;100197.16;;;3.74;45.84
48964;BME280;34776;48.180;16.420;2023-04-06T06:12:40;100195.31;;;3.79;45.53
48964;BME280;34776;48.180;16.420;2023-04-06T06:15:06;100194.38;;;3.82;45.78
48964;BME280;34776;48.180;16.420;2023-04-06T06:17:32;100195.09;;;3.90;45.57
48964;BME280;34776;48.180;16.420;2023-04-06T06:19:57;100199.34;;;3.99;45.59
48964;BME280;34776;48.180;16.420;2023-04-06T06:22:23;100200.06;;;4.07;45.50
48964;BME280;34776;48.180;16.420;2023-04-06T06:24:48;100203.38;;;4.18;45.27
48964;BME280;34776;48.180;16.420;2023-04-06T06:27:15;100202.38;;;4.24;45.13
48964;BME280;34776;48.180;16.420;2023-04-06T06:29:41;100197.00;;;4.30;45.31
48964;BME280;34776;48.180;16.420;2023-04-06T06:32:06;100192.56;;;4.34;45.05
48964;BME280;34776;48.180;16.420;2023-04-06T06:34:34;100197.56;;;4.46;45.07
48964;BME280;34776;48.180;16.420;2023-04-06T06:36:59;100202.50;;;4.61;44.91
48964;BME280;34776;48.180;16.420;2023-04-06T06:39:26;100201.56;;;4.64;44.75
48964;BME280;34776;48.180;16.420;2023-04-06T06:41:51;100199.72;;;4.69;44.70
48964;BME280;34776;48.180;16.420;2023-04-06T06:44:17;100199.56;;;4.77;44.69
48964;BME280;34776;48.180;16.420;2023-04-06T06:46:42;100201.31;;;4.76;44.93
48964;BME280;34776;48.180;16.420;2023-04-06T06:49:08;100189.66;;;4.88;44.63
48964;BME280;34776;48.180;16.420;2023-04-06T06:51:33;100194.41;;;5.13;44.47
48964;BME280;34776;48.180;16.420;2023-04-06T06:53:59;100200.19;;;5.27;44.41
48964;BME280;34776;48.180;16.420;2023-04-06T06:56:24;100186.72;;;5.39;44.22
48964;BME280;34776;48.180;16.420;2023-04-06T06:58:51;100192.22;;;5.66;44.06
48964;BME280;34776;48.180;16.420;2023-04-06T07:01:17;100187.09;;;5.96;43.57
48964;BME280;34776;48.180;16.420;2023-04-06T07:03:42;100190.88;;;6.51;43.11
48964;BME280;34776;48.180;16.420;2023-04-06T07:06:08;100185.00;;;8.32;41.87
48964;BME280;34776;48.180;16.420;2023-04-06T07:08:33;100181.09;;;10.60;38.70
48964;BME280;34776;48.180;16.420;2023-04-06T07:10:58;100177.44;;;12.10;36.33
48964;BME280;34776;48.180;16.420;2023-04-06T07:13:24;100175.91;;;13.68;34.11
48964;BME280;34776;48.180;16.420;2023-04-06T07:15:51;100165.81;;;14.76;32.80
48964;BME280;34776;48.180;16.420;2023-04-06T07:18:19;100173.78;;;15.74;31.62
48964;BME280;34776;48.180;16.420;2023-04-06T07:20:44;100166.94;;;17.11;30.35
48964;BME280;34776;48.180;16.420;2023-04-06T07:23:10;100164.22;;;18.99;27.85
48964;BME280;34776;48.180;16.420;2023-04-06T07:25:35;100160.81;;;20.26;26.41
48964;BME280;34776;48.180;16.420;2023-04-06T07:28:02;100157.28;;;21.18;25.57
48964;BME280;34776;48.180;16.420;2023-04-06T07:30:28;100159.84;;;21.29;24.24
48964;BME280;34776;48.180;16.420;2023-04-06T07:32:54;100155.63;;;21.46;23.67
48964;BME280;34776;48.180;16.420;2023-04-06T07:35:23;100151.41;;;21.82;23.75
48964;BME280;34776;48.180;16.420;2023-04-06T07:37:48;100144.81;;;22.24;23.17
48964;BME280;34776;48.180;16.420;2023-04-06T07:40:14;100147.00;;;23.41;21.67
48964;BME280;34776;48.180;16.420;2023-04-06T07:42:39;100147.34;;;23.74;21.69
48964;BME280;34776;48.180;16.420;2023-04-06T07:45:05;100145.84;;;24.15;20.56
48964;BME280;34776;48.180;16.420;2023-04-06T07:47:31;100147.59;;;23.80;20.48
48964;BME280;34776;48.180;16.420;2023-04-06T07:49:56;100147.78;;;23.33;20.70
48964;BME280;34776;48.180;16.420;2023-04-06T07:52:22;100137.97;;;23.50;20.20
48964;BME280;34776;48.180;16.420;2023-04-06T07:54:47;100152.84;;;23.46;19.96
48964;BME280;34776;48.180;16.420;2023-04-06T07:57:14;100148.50;;;23.35;19.87
48964;BME280;34776;48.180;16.420;2023-04-06T07:59:40;100141.63;;;22.85;20.04
48964;BME280;34776;48.180;16.420;2023-04-06T08:02:05;100142.56;;;23.22;19.97
48964;BME280;34776;48.180;16.420;2023-04-06T08:04:31;100146.06;;;23.78;19.38
48964;BME280;34776;48.180;16.420;2023-04-06T08:06:56;100140.91;;;24.37;18.93
48964;BME280;34776;48.180;16.420;2023-04-06T08:09:22;100143.50;;;25.15;18.65
48964;BME280;34776;48.180;16.420;2023-04-06T08:11:47;100138.59;;;25.94;18.00
48964;BME280;34776;48.180;16.420;2023-04-06T08:14:14;100131.88;;;24.97;17.81
48964;BME280;34776;48.180;16.420;2023-04-06T08:16:40;100139.78;;;24.82;18.44
48964;BME280;34776;48.180;16.420;2023-04-06T08:19:06;100123.06;;;25.03;17.92
48964;BME280;34776;48.180;16.420;2023-04-06T08:21:34;100126.56;;;25.29;18.07
48964;BME280;34776;48.180;16.420;2023-04-06T08:24:00;100136.31;;;24.98;17.42
48964;BME280;34776;48.180;16.420;2023-04-06T08:26:26;100137.91;;;24.48;17.67
48964;BME280;34776;48.180;16.420;2023-04-06T08:28:52;100143.63;;;24.63;17.49
48964;BME280;34776;48.180;16.420;2023-04-06T08:31:17;100146.78;;;24.06;17.54
48964;BME280;34776;48.180;16.420;2023-04-06T08:33:43;100139.03;;;23.93;18.04
48964;BME280;34776;48.180;16.420;2023-04-06T08:36:13;100133.44;;;24.65;17.31
48964;BME280;34776;48.180;16.420;2023-04-06T08:38:40;100133.53;;;24.81;17.33
48964;BME280;34776;48.180;16.420;2023-04-06T08:41:10;100128.44;;;24.52;16.64
48964;BME280;34776;48.180;16.420;2023-04-06T08:43:43;100134.91;;;24.33;16.25
48964;BME280;34776;48.180;16.420;2023-04-06T08:46:10;100130.25;;;24.43;17.06
48964;BME280;34776;48.180;16.420;2023-04-06T08:48:38;100128.69;;;24.15;17.11
48964;BME280;34776;48.180;16.420;2023-04-06T08:51:04;100123.97;;;24.43;17.21
48964;BME280;34776;48.180;16.420;2023-04-06T08:53:29;100118.84;;;24.66;16.96
48964;BME280;34776;48.180;16.420;2023-04-06T08:55:57;100123.66;;;24.20;16.65
48964;BME280;34776;48.180;16.420;2023-04-06T08:58:24;100113.38;;;23.51;17.35
48964;BME280;34776;48.180;16.420;2023-04-06T09:00:51;100121.19;;;23.37;17.54
48964;BME280;34776;48.180;16.420;2023-04-06T09:03:18;100119.81;;;23.33;17.52
48964;BME280;34776;48.180;16.420;2023-04-06T09:05:46;100106.13;;;23.52;17.75
48964;BME280;34776;48.180;16.420;2023-04-06T09:08:12;100114.88;;;24.26;17.53
48964;BME280;34776;48.180;16.420;2023-04-06T09:10:40;100108.56;;;25.28;16.70
48964;BME280;34776;48.180;16.420;2023-04-06T09:13:07;100106.88;;;25.44;16.31
48964;BME280;34776;48.180;16.420;2023-04-06T09:15:33;100106.25;;;21.44;18.87
48964;BME280;34776;48.180;16.420;2023-04-06T09:17:58;100095.84;;;21.29;19.68
48964;BME280;34776;48.180;16.420;2023-04-06T09:20:25;100101.94;;;22.09;19.13
48964;BME280;34776;48.180;16.420;2023-04-06T09:22:51;100085.75;;;21.32;19.40
48964;BME280;34776;48.180;16.420;2023-04-06T09:25:21;100087.13;;;18.75;21.08
48964;BME280;34776;48.180;16.420;2023-04-06T09:27:48;100083.56;;;16.13;23.53
48964;BME280;34776;48.180;16.420;2023-04-06T09:30:22;100088.91;;;15.74;24.65
48964;BME280;34776;48.180;16.420;2023-04-06T09:32:56;100079.97;;;15.21;25.08
48964;BME280;34776;48.180;16.420;2023-04-06T09:35:23;100086.34;;;14.64;25.86
48964;BME280;34776;48.180;16.420;2023-04-06T09:37:49;100082.59;;;14.09;26.15
48964;BME280;34776;48.180;16.420;2023-04-06T09:40:15;100076.78;;;13.88;26.84
48964;BME280;34776;48.180;16.420;2023-04-06T09:42:45;100071.47;;;13.72;27.00
48964;BME280;34776;48.180;16.420;2023-04-06T09:45:11;100070.91;;;13.37;26.93
48964;BME280;34776;48.180;16.420;2023-04-06T09:47:37;100068.59;;;13.31;27.16
48964;BME280;34776;48.180;16.420;2023-04-06T09:50:07;100059.88;;;13.43;27.02
48964;BME280;34776;48.180;16.420;2023-04-06T09:52:40;100066.88;;;13.14;26.89
48964;BME280;34776;48.180;16.420;2023-04-06T09:55:07;100061.50;;;12.84;27.29
48964;BME280;34776;48.180;16.420;2023-04-06T09:57:50;100070.91;;;12.10;27.86
48964;BME280;34776;48.180;16.420;2023-04-06T10:00:21;100070.25;;;11.89;28.36
48964;BME280;34776;48.180;16.420;2023-04-06T10:02:58;100055.25;;;11.69;28.34
48964;BME280;34776;48.180;16.420;2023-04-06T10:07:57;100045.78;;;11.81;28.29
48964;BME280;34776;48.180;16.420;2023-04-06T10:10:24;100056.50;;;11.79;28.06
48964;BME280;34776;48.180;16.420;2023-04-06T10:12:50;100043.59;;;11.71;28.26
48964;BME280;34776;48.180;16.420;2023-04-06T10:15:16;100067.78;;;11.67;28.00
48964;BME280;34776;48.180;16.420;2023-04-06T10:17:42;100049.63;;;11.75;27.88
48964;BME280;34776;48.180;16.420;2023-04-06T10:23:08;100037.91;;;12.28;27.32
48964;BME280;34776;48.180;16.420;2023-04-06T10:25:35;100029.34;;;12.55;27.06
48964;BME280;34776;48.180;16.420;2023-04-06T10:28:05;100027.88;;;12.81;26.82
48964;BME280;34776;48.180;16.420;2023-04-06T10:30:32;100016.81;;;13.03;26.51
48964;BME280;34776;48.180;16.420;2023-04-06T10:32:58;100027.09;;;13.25;26.39
48964;BME280;34776;48.180;16.420;2023-04-06T10:35:23;100021.72;;;13.41;26.46
48964;BME280;34776;48.180;16.420;2023-04-06T10:38:01;100013.75;;;13.55;26.46
48964;BME280;34776;48.180;16.420;2023-04-06T10:40:27;100021.19;;;13.65;26.20
48964;BME280;34776;48.180;16.420;2023-04-06T10:42:54;100007.25;;;13.45;25.90
48964;BME280;34776;48.180;16.420;2023-04-06T10:45:25;100008.88;;;12.87;26.02
48964;BME280;34776;48.180;16.420;2023-04-06T10:47:54;99996.97;;;12.93;26.30
48964;BME280;34776;48.180;16.420;2023-04-06T10:50:21;100012.75;;;13.12;26.28
48964;BME280;34776;48.180;16.420;2023-04-06T10:52:47;99997.91;;;12.92;25.99
48964;BME280;34776;48.180;16.420;2023-04-06T10:55:14;99998.03;;;12.58;26.55
48964;BME280;34776;48.180;16.420;2023-04-06T10:57:40;100000.09;;;12.69;26.65
48964;BME280;34776;48.180;16.420;2023-04-06T11:00:07;99999.09;;;12.56;26.67
48964;BME280;34776;48.180;16.420;2023-04-06T11:02:35;100001.50;;;12.61;26.74
48964;BME280;34776;48.180;16.420;2023-04-06T11:05:04;100000.28;;;12.66;26.61
48964;BME280;34776;48.180;16.420;2023-04-06T11:07:29;100000.28;;;12.66;26.60
48964;BME280;34776;48.180;16.420;2023-04-06T11:09:56;99983.03;;;12.88;26.74
48964;BME280;34776;48.180;16.420;2023-04-06T11:12:26;99999.91;;;13.18;26.24
48964;BME280;34776;48.180;16.420;2023-04-06T11:14:56;99986.25;;;13.39;26.32
48964;BME280;34776;48.180;16.420;2023-04-06T11:17:27;99984.97;;;13.75;25.98
48964;BME280;34776;48.180;16.420;2023-04-06T11:19:53;99986.69;;;13.76;25.61
48964;BME280;34776;48.180;16.420;2023-04-06T11:22:18;99981.66;;;13.71;25.61
48964;BME280;34776;48.180;16.420;2023-04-06T11:24:43;99976.19;;;13.73;25.68
48964;BME280;34776;48.180;16.420;2023-04-06T11:27:09;99973.91;;;13.81;25.56
48964;BME280;34776;48.180;16.420;2023-04-06T11:29:34;99965.13;;;13.79;25.49
48964;BME280;34776;48.180;16.420;2023-04-06T11:32:04;99955.03;;;13.98;25.54
48964;BME280;34776;48.180;16.420;2023-04-06T11:34:36;99951.66;;;14.09;25.26
48964;BME280;34776;48.180;16.420;2023-04-06T11:37:04;99945.78;;;13.75;25.12
48964;BME280;34776;48.180;16.420;2023-04-06T11:39:39;99941.38;;;13.74;25.32
48964;BME280;34776;48.180;16.420;2023-04-06T11:42:05;99948.63;;;13.58;25.25
48964;BME280;34776;48.180;16.420;2023-04-06T11:44:33;99940.59;;;13.44;25.19
48964;BME280;34776;48.180;16.420;2023-04-06T11:47:03;99928.13;;;13.44;25.52
48964;BME280;34776;48.180;16.420;2023-04-06T11:49:33;99933.47;;;13.73;25.18
48964;BME280;34776;48.180;16.420;2023-04-06T11:52:01;99922.31;;;13.95;25.39
48964;BME280;34776;48.180;16.420;2023-04-06T11:54:34;99931.94;;;13.97;24.68
48964;BME280;34776;48.180;16.420;2023-04-06T11:57:01;99918.94;;;14.06;25.27
48964;BME280;34776;48.180;16.420;2023-04-06T11:59:27;99923.75;;;14.28;25.11
48964;BME280;34776;48.180;16.420;2023-04-06T12:01:53;99917.00;;;14.22;24.71
48964;BME280;34776;48.180;16.420;2023-04-06T12:04:19;99908.88;;;13.82;25.00
48964;BME280;34776;48.180;16.420;2023-04-06T12:06:45;99904.84;;;13.89;25.04
48964;BME280;34776;48.180;16.420;2023-04-06T12:09:10;99899.88;;;13.97;24.84
48964;BME280;34776;48.180;16.420;2023-04-06T12:11:36;99907.34;;;13.92;24.55
48964;BME280;34776;48.180;16.420;2023-04-06T12:14:02;99898.94;;;13.98;24.81
48964;BME280;34776;48.180;16.420;2023-04-06T12:16:31;99892.94;;;14.22;24.35
48964;BME280;34776;48.180;16.420;2023-04-06T12:18:56;99902.75;;;14.49;24.29
48964;BME280;34776;48.180;16.420;2023-04-06T12:21:22;99889.00;;;14.55;23.84
48964;BME280;34776;48.180;16.420;2023-04-06T12:23:47;99886.41;;;14.40;24.24
48964;BME280;34776;48.180;16.420;2023-04-06T12:26:13;99887.28;;;14.54;24.09
48964;BME280;34776;48.180;16.420;2023-04-06T12:28:38;99879.97;;;14.43;23.81
48964;BME280;34776;48.180;16.420;2023-04-06T12:31:03;99878.50;;;14.52;23.97
48964;BME280;34776;48.180;16.420;2023-04-06T12:33:29;99876.41;;;14.57;24.22
48964;BME280;34776;48.180;16.420;2023-04-06T12:35:54;99878.56;;;14.65;24.01
48964;BME280;34776;48.180;16.420;2023-04-06T12:38:20;99885.78;;;14.77;24.02
48964;BME280;34776;48.180;16.420;2023-04-06T12:40:46;99884.19;;;14.74;23.79
48964;BME280;34776;48.180;16.420;2023-04-06T12:43:11;99882.22;;;14.36;24.04
48964;BME280;34776;48.180;16.420;2023-04-06T12:45:39;99876.25;;;14.18;24.03
48964;BME280;34776;48.180;16.420;2023-04-06T12:48:05;99876.03;;;13.94;24.18